Kunrade, Netherlands
Current Conditions -  °F | °C
As of 9:55 AM on Wednesday 26 Nov 2014 (Local Time) from EHBK Reporting Station
Clear Clear  
Wind Chill: 36°   Ceiling: Unl
Heat Index: 41°   Visibility: 4mi
Dew Point: 39°   Wind: 7mph
Humidity: 93%   Direction: 90°E
Pressure: 29.94"   Gusts: NA
Location:  50.88°N, 5.93°E
Report Text: EHBK 260855Z AUTO 09006KT 6000 NSC 05/04 Q1014 BECMG 7000
Loading
Personal Weather Stations






























Interactive Weather Map New forecast layout! Learn more

10-Day Weather Forecast

Advertisements
Track Severe Weather on mobile